sensor_id;sensor_type;location;lat;lon;timestamp;P1;durP1;ratioP1;P2;durP2;ratioP2
12784;SDS011;6456;42.680;23.260;2022-12-18T00:02:24;4.87;;;4.37;;
12784;SDS011;6456;42.680;23.260;2022-12-18T00:04:51;5.73;;;4.33;;
12784;SDS011;6456;42.680;23.260;2022-12-18T00:07:18;5.00;;;4.50;;
12784;SDS011;6456;42.680;23.260;2022-12-18T00:09:45;4.80;;;4.40;;
12784;SDS011;6456;42.680;23.260;2022-12-18T00:12:12;5.80;;;4.90;;
12784;SDS011;6456;42.680;23.260;2022-12-18T00:14:46;5.07;;;4.57;;
12784;SDS011;6456;42.680;23.260;2022-12-18T00:17:13;4.97;;;4.47;;
12784;SDS011;6456;42.680;23.260;2022-12-18T00:19:40;5.10;;;4.60;;
12784;SDS011;6456;42.680;23.260;2022-12-18T00:22:07;5.70;;;5.20;;
12784;SDS011;6456;42.680;23.260;2022-12-18T00:24:34;6.40;;;4.23;;
12784;SDS011;6456;42.680;23.260;2022-12-18T00:27:01;6.77;;;5.27;;
12784;SDS011;6456;42.680;23.260;2022-12-18T00:29:27;4.97;;;4.47;;
12784;SDS011;6456;42.680;23.260;2022-12-18T00:31:56;5.40;;;4.90;;
12784;SDS011;6456;42.680;23.260;2022-12-18T00:34:22;6.23;;;5.10;;
12784;SDS011;6456;42.680;23.260;2022-12-18T00:36:49;5.80;;;5.07;;
12784;SDS011;6456;42.680;23.260;2022-12-18T00:39:16;5.97;;;4.93;;
12784;SDS011;6456;42.680;23.260;2022-12-18T00:41:43;5.30;;;4.80;;
12784;SDS011;6456;42.680;23.260;2022-12-18T00:44:42;5.17;;;4.67;;
12784;SDS011;6456;42.680;23.260;2022-12-18T00:47:10;5.90;;;4.83;;
12784;SDS011;6456;42.680;23.260;2022-12-18T00:49:37;6.00;;;5.40;;
12784;SDS011;6456;42.680;23.260;2022-12-18T00:52:04;6.33;;;5.20;;
12784;SDS011;6456;42.680;23.260;2022-12-18T00:54:33;5.87;;;5.23;;
12784;SDS011;6456;42.680;23.260;2022-12-18T00:57:00;6.00;;;5.13;;
12784;SDS011;6456;42.680;23.260;2022-12-18T00:59:27;5.83;;;5.33;;
12784;SDS011;6456;42.680;23.260;2022-12-18T01:01:55;6.90;;;5.70;;
12784;SDS011;6456;42.680;23.260;2022-12-18T01:04:24;6.53;;;5.67;;
12784;SDS011;6456;42.680;23.260;2022-12-18T01:06:51;6.10;;;5.37;;
12784;SDS011;6456;42.680;23.260;2022-12-18T01:09:18;5.80;;;5.20;;
12784;SDS011;6456;42.680;23.260;2022-12-18T01:11:45;5.50;;;5.00;;
12784;SDS011;6456;42.680;23.260;2022-12-18T01:16:58;6.03;;;5.30;;
12784;SDS011;6456;42.680;23.260;2022-12-18T01:19:28;6.00;;;5.40;;
12784;SDS011;6456;42.680;23.260;2022-12-18T01:21:56;6.87;;;5.77;;
12784;SDS011;6456;42.680;23.260;2022-12-18T01:24:23;6.83;;;5.37;;
12784;SDS011;6456;42.680;23.260;2022-12-18T01:26:50;6.83;;;6.10;;
12784;SDS011;6456;42.680;23.260;2022-12-18T01:29:17;5.97;;;5.20;;
12784;SDS011;6456;42.680;23.260;2022-12-18T01:31:44;5.60;;;4.97;;
12784;SDS011;6456;42.680;23.260;2022-12-18T01:34:11;7.97;;;5.87;;
12784;SDS011;6456;42.680;23.260;2022-12-18T01:36:39;7.23;;;5.70;;
12784;SDS011;6456;42.680;23.260;2022-12-18T01:39:07;6.53;;;5.80;;
12784;SDS011;6456;42.680;23.260;2022-12-18T01:41:37;7.27;;;6.13;;
12784;SDS011;6456;42.680;23.260;2022-12-18T01:47:20;6.63;;;5.97;;
12784;SDS011;6456;42.680;23.260;2022-12-18T01:49:50;7.53;;;6.30;;
12784;SDS011;6456;42.680;23.260;2022-12-18T01:52:19;9.17;;;5.87;;
12784;SDS011;6456;42.680;23.260;2022-12-18T01:54:48;6.53;;;5.53;;
12784;SDS011;6456;42.680;23.260;2022-12-18T01:57:17;6.10;;;5.47;;
12784;SDS011;6456;42.680;23.260;2022-12-18T01:59:47;5.57;;;5.00;;
12784;SDS011;6456;42.680;23.260;2022-12-18T02:02:19;6.17;;;5.37;;
12784;SDS011;6456;42.680;23.260;2022-12-18T02:04:47;7.13;;;5.57;;
12784;SDS011;6456;42.680;23.260;2022-12-18T02:07:16;6.83;;;5.67;;
12784;SDS011;6456;42.680;23.260;2022-12-18T02:09:50;6.13;;;5.40;;
12784;SDS011;6456;42.680;23.260;2022-12-18T02:12:25;7.77;;;5.80;;
12784;SDS011;6456;42.680;23.260;2022-12-18T02:15:02;6.23;;;5.60;;
12784;SDS011;6456;42.680;23.260;2022-12-18T02:17:36;8.07;;;5.63;;
12784;SDS011;6456;42.680;23.260;2022-12-18T02:20:10;6.27;;;5.67;;
12784;SDS011;6456;42.680;23.260;2022-12-18T02:22:46;6.13;;;4.80;;
12784;SDS011;6456;42.680;23.260;2022-12-18T02:25:29;5.27;;;4.77;;
12784;SDS011;6456;42.680;23.260;2022-12-18T02:28:11;6.33;;;5.23;;
12784;SDS011;6456;42.680;23.260;2022-12-18T02:30:40;6.80;;;5.00;;
12784;SDS011;6456;42.680;23.260;2022-12-18T02:33:09;6.50;;;4.87;;
12784;SDS011;6456;42.680;23.260;2022-12-18T02:35:39;5.03;;;4.53;;
12784;SDS011;6456;42.680;23.260;2022-12-18T02:38:08;5.70;;;5.00;;
12784;SDS011;6456;42.680;23.260;2022-12-18T02:40:36;5.80;;;4.83;;
12784;SDS011;6456;42.680;23.260;2022-12-18T02:43:07;7.07;;;5.73;;
12784;SDS011;6456;42.680;23.260;2022-12-18T02:45:35;6.40;;;4.97;;
12784;SDS011;6456;42.680;23.260;2022-12-18T02:48:12;6.17;;;5.43;;
12784;SDS011;6456;42.680;23.260;2022-12-18T02:50:41;5.73;;;5.13;;
12784;SDS011;6456;42.680;23.260;2022-12-18T02:53:17;6.37;;;5.30;;
12784;SDS011;6456;42.680;23.260;2022-12-18T02:55:54;5.93;;;4.83;;
12784;SDS011;6456;42.680;23.260;2022-12-18T02:58:40;6.00;;;5.03;;
12784;SDS011;6456;42.680;23.260;2022-12-18T03:01:15;6.27;;;5.13;;
12784;SDS011;6456;42.680;23.260;2022-12-18T03:03:49;5.10;;;4.60;;
12784;SDS011;6456;42.680;23.260;2022-12-18T03:06:23;7.03;;;5.23;;
12784;SDS011;6456;42.680;23.260;2022-12-18T03:08:54;5.83;;;4.93;;
12784;SDS011;6456;42.680;23.260;2022-12-18T03:11:25;5.27;;;4.40;;
12784;SDS011;6456;42.680;23.260;2022-12-18T03:14:15;7.50;;;5.63;;
12784;SDS011;6456;42.680;23.260;2022-12-18T03:16:46;6.20;;;5.43;;
12784;SDS011;6456;42.680;23.260;2022-12-18T03:19:16;6.80;;;5.70;;
12784;SDS011;6456;42.680;23.260;2022-12-18T03:21:48;6.77;;;5.47;;
12784;SDS011;6456;42.680;23.260;2022-12-18T03:24:18;5.90;;;5.30;;
12784;SDS011;6456;42.680;23.260;2022-12-18T03:26:48;6.93;;;6.13;;
12784;SDS011;6456;42.680;23.260;2022-12-18T03:29:21;6.53;;;5.57;;
12784;SDS011;6456;42.680;23.260;2022-12-18T03:31:55;7.53;;;6.43;;
12784;SDS011;6456;42.680;23.260;2022-12-18T03:34:29;6.20;;;5.07;;
12784;SDS011;6456;42.680;23.260;2022-12-18T03:37:02;5.43;;;4.73;;
12784;SDS011;6456;42.680;23.260;2022-12-18T03:39:30;5.43;;;4.90;;
12784;SDS011;6456;42.680;23.260;2022-12-18T03:41:58;5.73;;;4.83;;
12784;SDS011;6456;42.680;23.260;2022-12-18T03:44:32;4.80;;;4.00;;
12784;SDS011;6456;42.680;23.260;2022-12-18T03:47:09;5.53;;;4.40;;
12784;SDS011;6456;42.680;23.260;2022-12-18T03:49:43;5.00;;;4.50;;
12784;SDS011;6456;42.680;23.260;2022-12-18T03:52:16;5.17;;;4.60;;
12784;SDS011;6456;42.680;23.260;2022-12-18T03:54:50;5.23;;;4.27;;
12784;SDS011;6456;42.680;23.260;2022-12-18T03:57:19;5.27;;;4.53;;
12784;SDS011;6456;42.680;23.260;2022-12-18T03:59:51;5.20;;;4.37;;
12784;SDS011;6456;42.680;23.260;2022-12-18T04:02:23;6.13;;;4.53;;
12784;SDS011;6456;42.680;23.260;2022-12-18T04:04:51;5.33;;;4.40;;
12784;SDS011;6456;42.680;23.260;2022-12-18T04:07:22;6.57;;;5.40;;
12784;SDS011;6456;42.680;23.260;2022-12-18T04:09:51;5.30;;;4.80;;
12784;SDS011;6456;42.680;23.260;2022-12-18T04:12:25;6.40;;;5.20;;
12784;SDS011;6456;42.680;23.260;2022-12-18T04:14:52;5.93;;;5.27;;
12784;SDS011;6456;42.680;23.260;2022-12-18T04:17:19;6.33;;;5.33;;
12784;SDS011;6456;42.680;23.260;2022-12-18T04:19:48;6.23;;;5.07;;
12784;SDS011;6456;42.680;23.260;2022-12-18T04:22:15;5.43;;;4.87;;
12784;SDS011;6456;42.680;23.260;2022-12-18T04:24:42;7.00;;;5.80;;
12784;SDS011;6456;42.680;23.260;2022-12-18T04:27:11;6.93;;;5.90;;
12784;SDS011;6456;42.680;23.260;2022-12-18T04:29:38;6.60;;;5.50;;
12784;SDS011;6456;42.680;23.260;2022-12-18T04:32:05;6.37;;;5.77;;
12784;SDS011;6456;42.680;23.260;2022-12-18T04:34:32;7.40;;;6.10;;
12784;SDS011;6456;42.680;23.260;2022-12-18T04:37:01;8.27;;;6.47;;
12784;SDS011;6456;42.680;23.260;2022-12-18T04:39:28;8.33;;;6.17;;
12784;SDS011;6456;42.680;23.260;2022-12-18T04:41:55;9.00;;;6.67;;
12784;SDS011;6456;42.680;23.260;2022-12-18T04:44:22;8.73;;;6.30;;
12784;SDS011;6456;42.680;23.260;2022-12-18T04:46:49;8.37;;;6.90;;
12784;SDS011;6456;42.680;23.260;2022-12-18T04:49:16;8.73;;;6.83;;
12784;SDS011;6456;42.680;23.260;2022-12-18T04:51:43;7.90;;;6.33;;
12784;SDS011;6456;42.680;23.260;2022-12-18T04:54:11;9.07;;;6.77;;
12784;SDS011;6456;42.680;23.260;2022-12-18T04:56:38;7.43;;;6.43;;
12784;SDS011;6456;42.680;23.260;2022-12-18T04:59:05;8.70;;;6.50;;
12784;SDS011;6456;42.680;23.260;2022-12-18T05:01:35;9.80;;;7.23;;
12784;SDS011;6456;42.680;23.260;2022-12-18T05:04:02;9.33;;;7.10;;
12784;SDS011;6456;42.680;23.260;2022-12-18T05:06:29;9.57;;;7.03;;
12784;SDS011;6456;42.680;23.260;2022-12-18T05:08:56;7.83;;;6.70;;
12784;SDS011;6456;42.680;23.260;2022-12-18T05:11:25;9.20;;;7.57;;
12784;SDS011;6456;42.680;23.260;2022-12-18T05:13:52;10.33;;;7.73;;
12784;SDS011;6456;42.680;23.260;2022-12-18T05:16:24;10.63;;;7.83;;
12784;SDS011;6456;42.680;23.260;2022-12-18T05:18:51;8.70;;;7.60;;
12784;SDS011;6456;42.680;23.260;2022-12-18T05:21:18;11.17;;;8.63;;
12784;SDS011;6456;42.680;23.260;2022-12-18T05:23:45;11.27;;;8.40;;
12784;SDS011;6456;42.680;23.260;2022-12-18T05:26:14;11.23;;;8.50;;
12784;SDS011;6456;42.680;23.260;2022-12-18T05:28:47;9.20;;;7.20;;
12784;SDS011;6456;42.680;23.260;2022-12-18T05:31:14;9.17;;;7.63;;
12784;SDS011;6456;42.680;23.260;2022-12-18T05:33:41;10.27;;;8.33;;
12784;SDS011;6456;42.680;23.260;2022-12-18T05:36:11;10.50;;;8.03;;
12784;SDS011;6456;42.680;23.260;2022-12-18T05:38:38;10.63;;;7.60;;
12784;SDS011;6456;42.680;23.260;2022-12-18T05:41:06;10.53;;;7.33;;
12784;SDS011;6456;42.680;23.260;2022-12-18T05:43:34;12.10;;;8.30;;
12784;SDS011;6456;42.680;23.260;2022-12-18T05:46:06;10.20;;;7.70;;
12784;SDS011;6456;42.680;23.260;2022-12-18T05:48:34;10.80;;;8.37;;
12784;SDS011;6456;42.680;23.260;2022-12-18T05:51:05;11.67;;;8.27;;
12784;SDS011;6456;42.680;23.260;2022-12-18T05:53:33;12.80;;;8.77;;
12784;SDS011;6456;42.680;23.260;2022-12-18T05:56:01;13.43;;;9.30;;
12784;SDS011;6456;42.680;23.260;2022-12-18T05:58:29;10.57;;;8.63;;
12784;SDS011;6456;42.680;23.260;2022-12-18T06:00:57;14.27;;;9.43;;
12784;SDS011;6456;42.680;23.260;2022-12-18T06:03:33;13.10;;;9.27;;
12784;SDS011;6456;42.680;23.260;2022-12-18T06:05:59;11.40;;;8.77;;
12784;SDS011;6456;42.680;23.260;2022-12-18T06:08:27;11.07;;;8.93;;
12784;SDS011;6456;42.680;23.260;2022-12-18T06:10:54;11.97;;;9.53;;
12784;SDS011;6456;42.680;23.260;2022-12-18T06:13:21;10.83;;;8.50;;
12784;SDS011;6456;42.680;23.260;2022-12-18T06:15:48;11.57;;;9.30;;
12784;SDS011;6456;42.680;23.260;2022-12-18T06:18:15;11.97;;;8.80;;
12784;SDS011;6456;42.680;23.260;2022-12-18T06:20:43;11.23;;;8.27;;
12784;SDS011;6456;42.680;23.260;2022-12-18T06:23:10;11.40;;;8.43;;
12784;SDS011;6456;42.680;23.260;2022-12-18T06:25:37;12.67;;;8.20;;
12784;SDS011;6456;42.680;23.260;2022-12-18T06:28:05;10.87;;;8.17;;
12784;SDS011;6456;42.680;23.260;2022-12-18T06:30:35;11.90;;;8.63;;
12784;SDS011;6456;42.680;23.260;2022-12-18T06:33:04;12.33;;;9.27;;
12784;SDS011;6456;42.680;23.260;2022-12-18T06:35:31;12.93;;;9.13;;
12784;SDS011;6456;42.680;23.260;2022-12-18T06:38:00;13.70;;;9.23;;
12784;SDS011;6456;42.680;23.260;2022-12-18T06:40:27;13.83;;;9.43;;
12784;SDS011;6456;42.680;23.260;2022-12-18T06:43:00;11.47;;;9.00;;
12784;SDS011;6456;42.680;23.260;2022-12-18T06:45:27;12.80;;;9.13;;
12784;SDS011;6456;42.680;23.260;2022-12-18T06:47:54;11.27;;;8.90;;
12784;SDS011;6456;42.680;23.260;2022-12-18T06:50:23;11.00;;;8.73;;
12784;SDS011;6456;42.680;23.260;2022-12-18T06:52:50;11.73;;;9.03;;
12784;SDS011;6456;42.680;23.260;2022-12-18T06:55:19;12.27;;;9.53;;
12784;SDS011;6456;42.680;23.260;2022-12-18T06:57:51;10.97;;;8.40;;
12784;SDS011;6456;42.680;23.260;2022-12-18T07:00:18;12.70;;;8.70;;
12784;SDS011;6456;42.680;23.260;2022-12-18T07:02:50;10.53;;;8.60;;
12784;SDS011;6456;42.680;23.260;2022-12-18T07:05:17;10.97;;;9.07;;
12784;SDS011;6456;42.680;23.260;2022-12-18T07:07:44;12.43;;;8.00;;
12784;SDS011;6456;42.680;23.260;2022-12-18T07:10:12;11.33;;;8.47;;
12784;SDS011;6456;42.680;23.260;2022-12-18T07:12:41;12.30;;;8.63;;
12784;SDS011;6456;42.680;23.260;2022-12-18T07:15:08;11.47;;;8.47;;
12784;SDS011;6456;42.680;23.260;2022-12-18T07:17:37;11.00;;;8.47;;
12784;SDS011;6456;42.680;23.260;2022-12-18T07:20:04;11.60;;;8.57;;
12784;SDS011;6456;42.680;23.260;2022-12-18T07:22:32;12.03;;;9.07;;
12784;SDS011;6456;42.680;23.260;2022-12-18T07:25:03;10.57;;;8.63;;
12784;SDS011;6456;42.680;23.260;2022-12-18T07:27:30;12.00;;;8.40;;
12784;SDS011;6456;42.680;23.260;2022-12-18T07:29:58;11.90;;;9.00;;
12784;SDS011;6456;42.680;23.260;2022-12-18T07:32:25;13.20;;;8.83;;
12784;SDS011;6456;42.680;23.260;2022-12-18T07:34:52;13.40;;;9.33;;
12784;SDS011;6456;42.680;23.260;2022-12-18T07:37:19;14.43;;;10.37;;
12784;SDS011;6456;42.680;23.260;2022-12-18T07:39:46;13.33;;;9.47;;
12784;SDS011;6456;42.680;23.260;2022-12-18T07:42:13;14.27;;;9.87;;
12784;SDS011;6456;42.680;23.260;2022-12-18T07:44:59;13.17;;;9.87;;
12784;SDS011;6456;42.680;23.260;2022-12-18T07:47:34;15.40;;;10.03;;
12784;SDS011;6456;42.680;23.260;2022-12-18T07:50:05;16.47;;;11.47;;
12784;SDS011;6456;42.680;23.260;2022-12-18T07:52:33;14.83;;;10.17;;
12784;SDS011;6456;42.680;23.260;2022-12-18T07:55:00;17.70;;;11.30;;
12784;SDS011;6456;42.680;23.260;2022-12-18T07:57:27;14.03;;;10.13;;
12784;SDS011;6456;42.680;23.260;2022-12-18T07:59:54;13.77;;;10.57;;
12784;SDS011;6456;42.680;23.260;2022-12-18T08:02:22;15.63;;;11.23;;
12784;SDS011;6456;42.680;23.260;2022-12-18T08:04:49;15.00;;;11.03;;
12784;SDS011;6456;42.680;23.260;2022-12-18T08:07:27;16.40;;;11.40;;
12784;SDS011;6456;42.680;23.260;2022-12-18T08:09:59;16.23;;;11.60;;
12784;SDS011;6456;42.680;23.260;2022-12-18T08:12:26;16.07;;;10.43;;
12784;SDS011;6456;42.680;23.260;2022-12-18T08:14:53;15.07;;;10.63;;
12784;SDS011;6456;42.680;23.260;2022-12-18T08:17:21;16.30;;;12.07;;
12784;SDS011;6456;42.680;23.260;2022-12-18T08:19:48;18.10;;;12.60;;
12784;SDS011;6456;42.680;23.260;2022-12-18T08:22:18;15.47;;;11.80;;
12784;SDS011;6456;42.680;23.260;2022-12-18T08:24:45;17.13;;;11.97;;
12784;SDS011;6456;42.680;23.260;2022-12-18T08:27:12;16.80;;;12.20;;
12784;SDS011;6456;42.680;23.260;2022-12-18T08:29:39;15.93;;;11.37;;
12784;SDS011;6456;42.680;23.260;2022-12-18T08:32:06;15.93;;;11.30;;
12784;SDS011;6456;42.680;23.260;2022-12-18T08:34:34;16.87;;;11.57;;
12784;SDS011;6456;42.680;23.260;2022-12-18T08:37:01;16.10;;;10.77;;
12784;SDS011;6456;42.680;23.260;2022-12-18T08:39:28;15.40;;;10.93;;
12784;SDS011;6456;42.680;23.260;2022-12-18T08:41:55;18.00;;;12.53;;
12784;SDS011;6456;42.680;23.260;2022-12-18T08:44:39;16.07;;;11.53;;
12784;SDS011;6456;42.680;23.260;2022-12-18T08:47:06;15.53;;;11.67;;
12784;SDS011;6456;42.680;23.260;2022-12-18T08:49:35;16.13;;;11.87;;
12784;SDS011;6456;42.680;23.260;2022-12-18T08:52:03;15.67;;;11.33;;
12784;SDS011;6456;42.680;23.260;2022-12-18T08:54:30;16.10;;;11.93;;
12784;SDS011;6456;42.680;23.260;2022-12-18T08:56:57;17.90;;;12.53;;
12784;SDS011;6456;42.680;23.260;2022-12-18T08:59:24;17.03;;;12.77;;
12784;SDS011;6456;42.680;23.260;2022-12-18T09:01:53;17.07;;;12.47;;
12784;SDS011;6456;42.680;23.260;2022-12-18T09:04:20;17.50;;;11.87;;
12784;SDS011;6456;42.680;23.260;2022-12-18T09:06:48;18.00;;;12.03;;
12784;SDS011;6456;42.680;23.260;2022-12-18T09:09:15;15.40;;;11.23;;
12784;SDS011;6456;42.680;23.260;2022-12-18T09:11:42;16.93;;;11.83;;
12784;SDS011;6456;42.680;23.260;2022-12-18T09:14:09;21.07;;;13.00;;
12784;SDS011;6456;42.680;23.260;2022-12-18T09:16:36;16.17;;;12.00;;
12784;SDS011;6456;42.680;23.260;2022-12-18T09:19:03;16.97;;;12.47;;
12784;SDS011;6456;42.680;23.260;2022-12-18T09:21:32;16.80;;;11.67;;
12784;SDS011;6456;42.680;23.260;2022-12-18T09:24:02;15.77;;;10.67;;
12784;SDS011;6456;42.680;23.260;2022-12-18T09:26:30;16.10;;;10.83;;
12784;SDS011;6456;42.680;23.260;2022-12-18T09:28:56;14.33;;;11.00;;
12784;SDS011;6456;42.680;23.260;2022-12-18T09:31:24;13.50;;;10.30;;
12784;SDS011;6456;42.680;23.260;2022-12-18T09:33:51;14.40;;;10.67;;
12784;SDS011;6456;42.680;23.260;2022-12-18T09:36:18;15.53;;;10.87;;
12784;SDS011;6456;42.680;23.260;2022-12-18T09:38:45;15.90;;;10.93;;
12784;SDS011;6456;42.680;23.260;2022-12-18T09:41:20;16.13;;;12.00;;
12784;SDS011;6456;42.680;23.260;2022-12-18T09:44:17;17.10;;;11.97;;
12784;SDS011;6456;42.680;23.260;2022-12-18T09:46:50;16.73;;;11.83;;
12784;SDS011;6456;42.680;23.260;2022-12-18T09:49:21;14.30;;;10.37;;
12784;SDS011;6456;42.680;23.260;2022-12-18T09:51:54;14.67;;;9.97;;
12784;SDS011;6456;42.680;23.260;2022-12-18T09:54:25;13.70;;;10.17;;
12784;SDS011;6456;42.680;23.260;2022-12-18T09:56:58;14.63;;;9.70;;
12784;SDS011;6456;42.680;23.260;2022-12-18T09:59:26;16.23;;;10.03;;
12784;SDS011;6456;42.680;23.260;2022-12-18T10:01:58;14.83;;;11.07;;
12784;SDS011;6456;42.680;23.260;2022-12-18T10:04:25;13.83;;;10.20;;
12784;SDS011;6456;42.680;23.260;2022-12-18T10:06:58;14.47;;;10.40;;
12784;SDS011;6456;42.680;23.260;2022-12-18T10:09:36;13.90;;;10.30;;
12784;SDS011;6456;42.680;23.260;2022-12-18T10:12:08;15.23;;;10.47;;
12784;SDS011;6456;42.680;23.260;2022-12-18T10:14:46;14.33;;;9.90;;
12784;SDS011;6456;42.680;23.260;2022-12-18T10:17:23;14.30;;;10.13;;
12784;SDS011;6456;42.680;23.260;2022-12-18T10:19:57;12.23;;;9.03;;
12784;SDS011;6456;42.680;23.260;2022-12-18T10:22:34;11.50;;;9.10;;
12784;SDS011;6456;42.680;23.260;2022-12-18T10:25:13;12.83;;;9.67;;
12784;SDS011;6456;42.680;23.260;2022-12-18T10:27:48;13.63;;;9.90;;
12784;SDS011;6456;42.680;23.260;2022-12-18T10:30:19;14.73;;;10.00;;
12784;SDS011;6456;42.680;23.260;2022-12-18T10:32:48;14.07;;;10.40;;
12784;SDS011;6456;42.680;23.260;2022-12-18T10:35:16;12.50;;;9.83;;
12784;SDS011;6456;42.680;23.260;2022-12-18T10:37:59;14.90;;;10.27;;
12784;SDS011;6456;42.680;23.260;2022-12-18T10:40:29;15.23;;;10.23;;
12784;SDS011;6456;42.680;23.260;2022-12-18T10:43:10;14.77;;;9.80;;
12784;SDS011;6456;42.680;23.260;2022-12-18T10:45:38;15.63;;;10.57;;
12784;SDS011;6456;42.680;23.260;2022-12-18T10:48:17;14.23;;;10.20;;
12784;SDS011;6456;42.680;23.260;2022-12-18T10:50:46;14.13;;;9.80;;
12784;SDS011;6456;42.680;23.260;2022-12-18T10:53:17;13.03;;;9.40;;
12784;SDS011;6456;42.680;23.260;2022-12-18T10:55:46;14.20;;;9.83;;
12784;SDS011;6456;42.680;23.260;2022-12-18T10:58:19;15.83;;;10.57;;
12784;SDS011;6456;42.680;23.260;2022-12-18T11:01:04;13.47;;;9.57;;
12784;SDS011;6456;42.680;23.260;2022-12-18T11:03:34;14.57;;;9.70;;
12784;SDS011;6456;42.680;23.260;2022-12-18T11:06:04;13.47;;;9.10;;
12784;SDS011;6456;42.680;23.260;2022-12-18T11:08:33;13.90;;;9.83;;
12784;SDS011;6456;42.680;23.260;2022-12-18T11:11:00;11.47;;;8.37;;
12784;SDS011;6456;42.680;23.260;2022-12-18T11:13:29;15.70;;;9.07;;
12784;SDS011;6456;42.680;23.260;2022-12-18T11:15:57;12.77;;;9.50;;
12784;SDS011;6456;42.680;23.260;2022-12-18T11:18:26;12.40;;;8.97;;
12784;SDS011;6456;42.680;23.260;2022-12-18T11:20:56;15.60;;;9.83;;
12784;SDS011;6456;42.680;23.260;2022-12-18T11:23:25;15.03;;;9.83;;
12784;SDS011;6456;42.680;23.260;2022-12-18T11:25:54;13.87;;;9.20;;
12784;SDS011;6456;42.680;23.260;2022-12-18T11:28:28;13.73;;;8.60;;
12784;SDS011;6456;42.680;23.260;2022-12-18T11:31:16;12.87;;;8.70;;
12784;SDS011;6456;42.680;23.260;2022-12-18T11:33:46;13.73;;;7.83;;
12784;SDS011;6456;42.680;23.260;2022-12-18T11:36:19;12.00;;;8.33;;
12784;SDS011;6456;42.680;23.260;2022-12-18T11:38:48;12.37;;;7.67;;
12784;SDS011;6456;42.680;23.260;2022-12-18T11:41:21;10.83;;;8.07;;
12784;SDS011;6456;42.680;23.260;2022-12-18T11:44:17;12.70;;;8.23;;
12784;SDS011;6456;42.680;23.260;2022-12-18T11:46:49;11.23;;;8.17;;
12784;SDS011;6456;42.680;23.260;2022-12-18T11:49:22;12.63;;;8.33;;
12784;SDS011;6456;42.680;23.260;2022-12-18T11:51:54;12.20;;;9.07;;
12784;SDS011;6456;42.680;23.260;2022-12-18T11:54:25;12.47;;;8.77;;
12784;SDS011;6456;42.680;23.260;2022-12-18T11:56:53;14.63;;;8.60;;
12784;SDS011;6456;42.680;23.260;2022-12-18T11:59:32;13.27;;;8.80;;
12784;SDS011;6456;42.680;23.260;2022-12-18T12:02:11;12.20;;;8.10;;
12784;SDS011;6456;42.680;23.260;2022-12-18T12:07:53;12.57;;;8.87;;
12784;SDS011;6456;42.680;23.260;2022-12-18T12:10:26;11.83;;;8.90;;
12784;SDS011;6456;42.680;23.260;2022-12-18T12:13:19;14.47;;;9.57;;
12784;SDS011;6456;42.680;23.260;2022-12-18T12:16:00;16.97;;;9.90;;
12784;SDS011;6456;42.680;23.260;2022-12-18T12:18:42;11.33;;;8.87;;
12784;SDS011;6456;42.680;23.260;2022-12-18T12:21:20;13.93;;;9.67;;
12784;SDS011;6456;42.680;23.260;2022-12-18T12:23:53;13.40;;;9.37;;
12784;SDS011;6456;42.680;23.260;2022-12-18T12:26:30;13.70;;;9.53;;
12784;SDS011;6456;42.680;23.260;2022-12-18T12:29:19;14.53;;;9.97;;
12784;SDS011;6456;42.680;23.260;2022-12-18T12:32:08;14.80;;;10.43;;
12784;SDS011;6456;42.680;23.260;2022-12-18T12:35:12;14.23;;;10.03;;
12784;SDS011;6456;42.680;23.260;2022-12-18T12:38:03;15.87;;;10.70;;
12784;SDS011;6456;42.680;23.260;2022-12-18T12:40:42;15.13;;;10.33;;
12784;SDS011;6456;42.680;23.260;2022-12-18T12:43:22;14.83;;;10.07;;
12784;SDS011;6456;42.680;23.260;2022-12-18T12:46:03;15.27;;;10.30;;
12784;SDS011;6456;42.680;23.260;2022-12-18T12:48:42;15.10;;;10.60;;
12784;SDS011;6456;42.680;23.260;2022-12-18T12:51:13;13.20;;;9.87;;
12784;SDS011;6456;42.680;23.260;2022-12-18T12:53:46;14.77;;;11.00;;
12784;SDS011;6456;42.680;23.260;2022-12-18T12:56:15;16.30;;;10.77;;
12784;SDS011;6456;42.680;23.260;2022-12-18T12:58:53;16.50;;;10.50;;
12784;SDS011;6456;42.680;23.260;2022-12-18T13:01:35;14.50;;;10.50;;
12784;SDS011;6456;42.680;23.260;2022-12-18T13:07:56;14.83;;;9.80;;
12784;SDS011;6456;42.680;23.260;2022-12-18T13:10:32;13.27;;;9.53;;
12784;SDS011;6456;42.680;23.260;2022-12-18T13:13:09;13.87;;;10.07;;
12784;SDS011;6456;42.680;23.260;2022-12-18T13:15:38;15.67;;;10.97;;
12784;SDS011;6456;42.680;23.260;2022-12-18T13:21:13;15.30;;;10.20;;
12784;SDS011;6456;42.680;23.260;2022-12-18T13:23:50;14.70;;;10.37;;
12784;SDS011;6456;42.680;23.260;2022-12-18T13:26:30;14.50;;;10.90;;
12784;SDS011;6456;42.680;23.260;2022-12-18T13:28:59;14.77;;;10.00;;
12784;SDS011;6456;42.680;23.260;2022-12-18T13:34:34;14.77;;;9.97;;
12784;SDS011;6456;42.680;23.260;2022-12-18T13:43:24;15.33;;;10.30;;
12784;SDS011;6456;42.680;23.260;2022-12-18T13:46:17;12.97;;;9.33;;
12784;SDS011;6456;42.680;23.260;2022-12-18T13:48:50;21.70;;;9.97;;
12784;SDS011;6456;42.680;23.260;2022-12-18T13:51:21;13.93;;;10.40;;
12784;SDS011;6456;42.680;23.260;2022-12-18T13:53:49;15.67;;;10.37;;
12784;SDS011;6456;42.680;23.260;2022-12-18T13:56:21;14.87;;;10.33;;
12784;SDS011;6456;42.680;23.260;2022-12-18T14:02:44;12.33;;;8.77;;
12784;SDS011;6456;42.680;23.260;2022-12-18T14:05:21;12.17;;;8.93;;
12784;SDS011;6456;42.680;23.260;2022-12-18T14:07:48;11.93;;;8.47;;
12784;SDS011;6456;42.680;23.260;2022-12-18T14:10:16;11.47;;;8.37;;
12784;SDS011;6456;42.680;23.260;2022-12-18T14:12:44;12.00;;;8.47;;
12784;SDS011;6456;42.680;23.260;2022-12-18T14:15:24;12.63;;;8.60;;
12784;SDS011;6456;42.680;23.260;2022-12-18T14:18:00;11.73;;;8.60;;
12784;SDS011;6456;42.680;23.260;2022-12-18T14:20:33;11.63;;;7.93;;
12784;SDS011;6456;42.680;23.260;2022-12-18T14:23:01;11.23;;;8.27;;
12784;SDS011;6456;42.680;23.260;2022-12-18T14:25:28;11.73;;;8.43;;
12784;SDS011;6456;42.680;23.260;2022-12-18T14:28:02;13.67;;;9.07;;
12784;SDS011;6456;42.680;23.260;2022-12-18T14:30:36;13.10;;;8.50;;
12784;SDS011;6456;42.680;23.260;2022-12-18T14:33:09;13.13;;;10.10;;
12784;SDS011;6456;42.680;23.260;2022-12-18T14:35:37;14.37;;;10.90;;
12784;SDS011;6456;42.680;23.260;2022-12-18T14:38:10;13.93;;;10.07;;
12784;SDS011;6456;42.680;23.260;2022-12-18T14:40:44;15.10;;;10.43;;
12784;SDS011;6456;42.680;23.260;2022-12-18T14:43:11;14.47;;;10.20;;
12784;SDS011;6456;42.680;23.260;2022-12-18T14:45:39;15.17;;;10.33;;
12784;SDS011;6456;42.680;23.260;2022-12-18T14:48:11;15.37;;;10.53;;
12784;SDS011;6456;42.680;23.260;2022-12-18T14:50:42;16.30;;;9.93;;
12784;SDS011;6456;42.680;23.260;2022-12-18T14:53:20;15.33;;;10.37;;
12784;SDS011;6456;42.680;23.260;2022-12-18T14:55:49;18.20;;;11.93;;
12784;SDS011;6456;42.680;23.260;2022-12-18T14:58:17;18.40;;;11.07;;
12784;SDS011;6456;42.680;23.260;2022-12-18T15:00:44;14.83;;;10.60;;
12784;SDS011;6456;42.680;23.260;2022-12-18T15:03:13;15.57;;;9.90;;
12784;SDS011;6456;42.680;23.260;2022-12-18T15:05:45;14.83;;;10.33;;
12784;SDS011;6456;42.680;23.260;2022-12-18T15:08:27;17.47;;;9.77;;
12784;SDS011;6456;42.680;23.260;2022-12-18T15:11:01;13.90;;;9.07;;
12784;SDS011;6456;42.680;23.260;2022-12-18T15:13:28;13.27;;;8.63;;
12784;SDS011;6456;42.680;23.260;2022-12-18T15:15:56;11.67;;;8.50;;
12784;SDS011;6456;42.680;23.260;2022-12-18T15:18:30;13.90;;;8.87;;
12784;SDS011;6456;42.680;23.260;2022-12-18T15:21:07;13.27;;;8.63;;
12784;SDS011;6456;42.680;23.260;2022-12-18T15:23:36;15.90;;;9.77;;
12784;SDS011;6456;42.680;23.260;2022-12-18T15:26:11;13.83;;;9.37;;
12784;SDS011;6456;42.680;23.260;2022-12-18T15:28:43;13.70;;;9.23;;